Terminal Aerodrome Forecast
Issued by NWS Mobile, AL

Home | Current Version | Previous Version | Text Only | Print | Product List | Glossary On
Versions: 1 2 3 4 5 6 7 8 9 10 11 12 13 14 15 16 17 18 19 20 21 22 23 24 25 26
000
FTUS44 KMOB 012333
TAFMOB
TAF
KMOB 012333Z 0200/0224 18010KT P6SM FEW045 BKN200
     FM020800 18002KT 4SM BR BKN007
     FM021400 15008KT P6SM VCSH SCT012 BKN150
     FM021600 15014G20KT P6SM VCSH BKN250=

USA.gov is the U.S. government's official web portal to all federal, state and local government web resources and services.